sensor_id;sensor_type;location;lat;lon;timestamp;P1;durP1;ratioP1;P2;durP2;ratioP2
74320;SDS011;62738;45.772;4.804;2022-12-07T00:01:41;24.50;;;12.07;;
74320;SDS011;62738;45.772;4.804;2022-12-07T00:04:12;24.00;;;11.77;;
74320;SDS011;62738;45.772;4.804;2022-12-07T00:06:41;23.92;;;12.13;;
74320;SDS011;62738;45.772;4.804;2022-12-07T00:09:14;23.63;;;11.85;;
74320;SDS011;62738;45.772;4.804;2022-12-07T00:11:42;25.40;;;11.95;;
74320;SDS011;62738;45.772;4.804;2022-12-07T00:14:12;23.88;;;11.88;;
74320;SDS011;62738;45.772;4.804;2022-12-07T00:16:41;21.20;;;10.80;;
74320;SDS011;62738;45.772;4.804;2022-12-07T00:19:09;24.77;;;12.38;;
74320;SDS011;62738;45.772;4.804;2022-12-07T00:21:37;24.45;;;12.52;;
74320;SDS011;62738;45.772;4.804;2022-12-07T00:24:04;26.40;;;12.98;;
74320;SDS011;62738;45.772;4.804;2022-12-07T00:26:36;24.98;;;11.98;;
74320;SDS011;62738;45.772;4.804;2022-12-07T00:29:14;24.45;;;11.95;;
74320;SDS011;62738;45.772;4.804;2022-12-07T00:31:43;27.15;;;12.43;;
74320;SDS011;62738;45.772;4.804;2022-12-07T00:34:17;25.80;;;10.98;;
74320;SDS011;62738;45.772;4.804;2022-12-07T00:36:45;23.60;;;11.32;;
74320;SDS011;62738;45.772;4.804;2022-12-07T00:39:12;26.42;;;12.90;;
74320;SDS011;62738;45.772;4.804;2022-12-07T00:41:39;24.90;;;11.55;;
74320;SDS011;62738;45.772;4.804;2022-12-07T00:44:05;27.85;;;12.82;;
74320;SDS011;62738;45.772;4.804;2022-12-07T00:46:32;23.27;;;12.32;;
74320;SDS011;62738;45.772;4.804;2022-12-07T00:48:59;26.63;;;12.68;;
74320;SDS011;62738;45.772;4.804;2022-12-07T00:51:26;26.27;;;12.88;;
74320;SDS011;62738;45.772;4.804;2022-12-07T00:53:53;26.20;;;12.55;;
74320;SDS011;62738;45.772;4.804;2022-12-07T00:58:55;25.25;;;12.27;;
74320;SDS011;62738;45.772;4.804;2022-12-07T01:01:24;26.70;;;13.10;;
74320;SDS011;62738;45.772;4.804;2022-12-07T01:03:51;25.17;;;13.10;;
74320;SDS011;62738;45.772;4.804;2022-12-07T01:06:19;25.90;;;12.38;;
74320;SDS011;62738;45.772;4.804;2022-12-07T01:08:47;26.73;;;13.45;;
74320;SDS011;62738;45.772;4.804;2022-12-07T01:11:15;27.10;;;13.45;;
74320;SDS011;62738;45.772;4.804;2022-12-07T01:13:44;26.63;;;12.60;;
74320;SDS011;62738;45.772;4.804;2022-12-07T01:16:14;27.98;;;12.65;;
74320;SDS011;62738;45.772;4.804;2022-12-07T01:18:42;25.27;;;11.70;;
74320;SDS011;62738;45.772;4.804;2022-12-07T01:21:13;23.75;;;10.88;;
74320;SDS011;62738;45.772;4.804;2022-12-07T01:23:43;23.90;;;11.90;;
74320;SDS011;62738;45.772;4.804;2022-12-07T01:26:11;23.65;;;11.10;;
74320;SDS011;62738;45.772;4.804;2022-12-07T01:28:39;20.95;;;10.60;;
74320;SDS011;62738;45.772;4.804;2022-12-07T01:31:06;21.50;;;9.90;;
74320;SDS011;62738;45.772;4.804;2022-12-07T01:33:37;17.98;;;9.20;;
74320;SDS011;62738;45.772;4.804;2022-12-07T01:36:05;23.27;;;10.90;;
74320;SDS011;62738;45.772;4.804;2022-12-07T01:38:43;19.10;;;9.45;;
74320;SDS011;62738;45.772;4.804;2022-12-07T01:41:11;19.75;;;9.93;;
74320;SDS011;62738;45.772;4.804;2022-12-07T01:44:08;21.25;;;10.07;;
74320;SDS011;62738;45.772;4.804;2022-12-07T01:46:50;20.48;;;10.05;;
74320;SDS011;62738;45.772;4.804;2022-12-07T01:49:23;20.23;;;10.13;;
74320;SDS011;62738;45.772;4.804;2022-12-07T01:51:52;19.08;;;9.98;;
74320;SDS011;62738;45.772;4.804;2022-12-07T01:54:24;18.75;;;8.63;;
74320;SDS011;62738;45.772;4.804;2022-12-07T01:56:51;19.10;;;9.43;;
74320;SDS011;62738;45.772;4.804;2022-12-07T01:59:21;20.05;;;9.98;;
74320;SDS011;62738;45.772;4.804;2022-12-07T02:04:51;18.02;;;8.75;;
74320;SDS011;62738;45.772;4.804;2022-12-07T02:07:19;21.02;;;9.13;;
74320;SDS011;62738;45.772;4.804;2022-12-07T02:09:47;20.65;;;9.88;;
74320;SDS011;62738;45.772;4.804;2022-12-07T02:12:13;16.65;;;9.05;;
74320;SDS011;62738;45.772;4.804;2022-12-07T02:14:40;18.02;;;9.23;;
74320;SDS011;62738;45.772;4.804;2022-12-07T02:17:12;18.63;;;9.55;;
74320;SDS011;62738;45.772;4.804;2022-12-07T02:28:12;17.48;;;8.43;;
74320;SDS011;62738;45.772;4.804;2022-12-07T02:30:48;19.92;;;9.63;;
74320;SDS011;62738;45.772;4.804;2022-12-07T02:33:19;21.17;;;10.20;;
74320;SDS011;62738;45.772;4.804;2022-12-07T02:38:30;21.20;;;10.10;;
74320;SDS011;62738;45.772;4.804;2022-12-07T02:41:06;20.10;;;9.70;;
74320;SDS011;62738;45.772;4.804;2022-12-07T02:43:49;20.10;;;9.60;;
74320;SDS011;62738;45.772;4.804;2022-12-07T02:46:27;18.83;;;9.32;;
74320;SDS011;62738;45.772;4.804;2022-12-07T02:48:57;17.63;;;8.48;;
74320;SDS011;62738;45.772;4.804;2022-12-07T02:51:29;22.05;;;10.40;;
74320;SDS011;62738;45.772;4.804;2022-12-07T02:53:56;17.52;;;8.48;;
74320;SDS011;62738;45.772;4.804;2022-12-07T02:59:15;19.05;;;8.80;;
74320;SDS011;62738;45.772;4.804;2022-12-07T03:05:09;18.73;;;8.75;;
74320;SDS011;62738;45.772;4.804;2022-12-07T03:10:53;19.45;;;9.32;;
74320;SDS011;62738;45.772;4.804;2022-12-07T03:16:37;18.90;;;8.60;;
74320;SDS011;62738;45.772;4.804;2022-12-07T03:19:15;17.95;;;8.32;;
74320;SDS011;62738;45.772;4.804;2022-12-07T03:21:46;16.08;;;7.78;;
74320;SDS011;62738;45.772;4.804;2022-12-07T03:24:18;18.88;;;8.88;;
74320;SDS011;62738;45.772;4.804;2022-12-07T03:26:49;16.95;;;8.43;;
74320;SDS011;62738;45.772;4.804;2022-12-07T03:29:20;17.50;;;8.32;;
74320;SDS011;62738;45.772;4.804;2022-12-07T03:31:57;17.25;;;8.75;;
74320;SDS011;62738;45.772;4.804;2022-12-07T03:34:32;16.98;;;8.43;;
74320;SDS011;62738;45.772;4.804;2022-12-07T03:37:12;17.58;;;8.52;;
74320;SDS011;62738;45.772;4.804;2022-12-07T03:39:49;15.70;;;7.85;;
74320;SDS011;62738;45.772;4.804;2022-12-07T03:42:27;16.45;;;6.88;;
74320;SDS011;62738;45.772;4.804;2022-12-07T03:44:53;16.52;;;8.05;;
74320;SDS011;62738;45.772;4.804;2022-12-07T03:50:22;15.98;;;8.00;;
74320;SDS011;62738;45.772;4.804;2022-12-07T03:56:06;16.38;;;8.40;;
74320;SDS011;62738;45.772;4.804;2022-12-07T03:58:35;16.00;;;8.02;;
74320;SDS011;62738;45.772;4.804;2022-12-07T04:01:02;15.70;;;7.97;;
74320;SDS011;62738;45.772;4.804;2022-12-07T04:03:29;18.60;;;8.65;;
74320;SDS011;62738;45.772;4.804;2022-12-07T04:05:56;16.70;;;8.05;;
74320;SDS011;62738;45.772;4.804;2022-12-07T04:08:24;14.18;;;7.05;;
74320;SDS011;62738;45.772;4.804;2022-12-07T04:10:51;16.00;;;8.18;;
74320;SDS011;62738;45.772;4.804;2022-12-07T04:13:17;15.48;;;7.78;;
74320;SDS011;62738;45.772;4.804;2022-12-07T04:15:44;15.15;;;8.02;;
74320;SDS011;62738;45.772;4.804;2022-12-07T04:18:11;13.85;;;6.70;;
74320;SDS011;62738;45.772;4.804;2022-12-07T04:20:37;16.52;;;8.07;;
74320;SDS011;62738;45.772;4.804;2022-12-07T04:23:04;17.73;;;8.15;;
74320;SDS011;62738;45.772;4.804;2022-12-07T04:25:30;15.73;;;8.32;;
74320;SDS011;62738;45.772;4.804;2022-12-07T04:27:57;18.83;;;8.32;;
74320;SDS011;62738;45.772;4.804;2022-12-07T04:30:24;16.80;;;8.27;;
74320;SDS011;62738;45.772;4.804;2022-12-07T04:32:50;17.25;;;8.85;;
74320;SDS011;62738;45.772;4.804;2022-12-07T04:35:17;19.45;;;8.98;;
74320;SDS011;62738;45.772;4.804;2022-12-07T04:37:43;17.48;;;8.43;;
74320;SDS011;62738;45.772;4.804;2022-12-07T04:40:10;18.30;;;8.90;;
74320;SDS011;62738;45.772;4.804;2022-12-07T04:42:37;18.17;;;8.60;;
74320;SDS011;62738;45.772;4.804;2022-12-07T04:45:04;17.67;;;8.57;;
74320;SDS011;62738;45.772;4.804;2022-12-07T04:47:31;17.35;;;8.95;;
74320;SDS011;62738;45.772;4.804;2022-12-07T04:49:58;19.48;;;9.25;;
74320;SDS011;62738;45.772;4.804;2022-12-07T04:52:24;19.73;;;9.63;;
74320;SDS011;62738;45.772;4.804;2022-12-07T04:54:51;16.95;;;8.35;;
74320;SDS011;62738;45.772;4.804;2022-12-07T04:57:18;20.55;;;9.23;;
74320;SDS011;62738;45.772;4.804;2022-12-07T04:59:44;18.08;;;9.18;;
74320;SDS011;62738;45.772;4.804;2022-12-07T05:02:11;17.83;;;9.27;;
74320;SDS011;62738;45.772;4.804;2022-12-07T05:04:38;17.00;;;8.55;;
74320;SDS011;62738;45.772;4.804;2022-12-07T05:07:05;18.23;;;8.23;;
74320;SDS011;62738;45.772;4.804;2022-12-07T05:09:31;17.02;;;8.98;;
74320;SDS011;62738;45.772;4.804;2022-12-07T05:11:58;18.35;;;8.82;;
74320;SDS011;62738;45.772;4.804;2022-12-07T05:14:24;17.63;;;8.00;;
74320;SDS011;62738;45.772;4.804;2022-12-07T05:16:51;16.85;;;8.88;;
74320;SDS011;62738;45.772;4.804;2022-12-07T05:19:19;15.88;;;8.05;;
74320;SDS011;62738;45.772;4.804;2022-12-07T05:21:46;16.77;;;8.40;;
74320;SDS011;62738;45.772;4.804;2022-12-07T05:24:13;16.58;;;8.32;;
74320;SDS011;62738;45.772;4.804;2022-12-07T05:26:41;17.35;;;8.27;;
74320;SDS011;62738;45.772;4.804;2022-12-07T05:29:10;15.27;;;8.52;;
74320;SDS011;62738;45.772;4.804;2022-12-07T05:31:39;16.65;;;8.63;;
74320;SDS011;62738;45.772;4.804;2022-12-07T05:34:05;15.40;;;7.93;;
74320;SDS011;62738;45.772;4.804;2022-12-07T05:36:33;16.20;;;8.43;;
74320;SDS011;62738;45.772;4.804;2022-12-07T05:38:59;17.25;;;8.68;;
74320;SDS011;62738;45.772;4.804;2022-12-07T05:41:26;17.63;;;8.93;;
74320;SDS011;62738;45.772;4.804;2022-12-07T05:44:12;16.65;;;8.48;;
74320;SDS011;62738;45.772;4.804;2022-12-07T05:46:38;17.90;;;8.25;;
74320;SDS011;62738;45.772;4.804;2022-12-07T05:49:05;17.98;;;9.45;;
74320;SDS011;62738;45.772;4.804;2022-12-07T05:51:31;16.77;;;8.88;;
74320;SDS011;62738;45.772;4.804;2022-12-07T05:53:58;17.17;;;8.85;;
74320;SDS011;62738;45.772;4.804;2022-12-07T05:56:25;14.75;;;8.25;;
74320;SDS011;62738;45.772;4.804;2022-12-07T05:58:53;16.27;;;8.43;;
74320;SDS011;62738;45.772;4.804;2022-12-07T06:01:38;15.93;;;8.35;;
74320;SDS011;62738;45.772;4.804;2022-12-07T06:04:06;16.70;;;7.78;;
74320;SDS011;62738;45.772;4.804;2022-12-07T06:06:33;17.90;;;8.70;;
74320;SDS011;62738;45.772;4.804;2022-12-07T06:08:59;14.73;;;8.02;;
74320;SDS011;62738;45.772;4.804;2022-12-07T06:11:26;14.73;;;8.02;;
74320;SDS011;62738;45.772;4.804;2022-12-07T06:14:11;14.52;;;7.53;;
74320;SDS011;62738;45.772;4.804;2022-12-07T06:16:38;16.15;;;8.35;;
74320;SDS011;62738;45.772;4.804;2022-12-07T06:19:04;14.68;;;7.68;;
74320;SDS011;62738;45.772;4.804;2022-12-07T06:21:31;15.57;;;7.05;;
74320;SDS011;62738;45.772;4.804;2022-12-07T06:23:58;14.35;;;7.70;;
74320;SDS011;62738;45.772;4.804;2022-12-07T06:26:24;13.63;;;7.82;;
74320;SDS011;62738;45.772;4.804;2022-12-07T06:28:51;14.18;;;7.93;;
74320;SDS011;62738;45.772;4.804;2022-12-07T06:31:17;13.30;;;7.28;;
74320;SDS011;62738;45.772;4.804;2022-12-07T06:33:44;13.35;;;6.57;;
74320;SDS011;62738;45.772;4.804;2022-12-07T06:36:11;13.45;;;7.47;;
74320;SDS011;62738;45.772;4.804;2022-12-07T06:38:38;13.27;;;7.38;;
74320;SDS011;62738;45.772;4.804;2022-12-07T06:41:05;14.13;;;7.28;;
74320;SDS011;62738;45.772;4.804;2022-12-07T06:43:32;14.70;;;7.80;;
74320;SDS011;62738;45.772;4.804;2022-12-07T06:45:59;12.95;;;7.38;;
74320;SDS011;62738;45.772;4.804;2022-12-07T06:48:26;12.98;;;7.35;;
74320;SDS011;62738;45.772;4.804;2022-12-07T06:50:52;13.43;;;6.60;;
74320;SDS011;62738;45.772;4.804;2022-12-07T06:53:20;14.48;;;7.32;;
74320;SDS011;62738;45.772;4.804;2022-12-07T06:55:48;15.88;;;7.85;;
74320;SDS011;62738;45.772;4.804;2022-12-07T06:58:15;16.33;;;7.03;;
74320;SDS011;62738;45.772;4.804;2022-12-07T07:00:42;11.63;;;7.55;;
74320;SDS011;62738;45.772;4.804;2022-12-07T07:03:09;12.05;;;6.97;;
74320;SDS011;62738;45.772;4.804;2022-12-07T07:05:36;12.88;;;6.78;;
74320;SDS011;62738;45.772;4.804;2022-12-07T07:08:03;11.02;;;7.30;;
74320;SDS011;62738;45.772;4.804;2022-12-07T07:10:47;15.02;;;6.85;;
74320;SDS011;62738;45.772;4.804;2022-12-07T07:13:13;15.00;;;8.40;;
74320;SDS011;62738;45.772;4.804;2022-12-07T07:15:40;17.77;;;8.60;;
74320;SDS011;62738;45.772;4.804;2022-12-07T07:18:07;17.20;;;9.60;;
74320;SDS011;62738;45.772;4.804;2022-12-07T07:20:34;22.88;;;11.85;;
74320;SDS011;62738;45.772;4.804;2022-12-07T07:23:00;22.70;;;11.50;;
74320;SDS011;62738;45.772;4.804;2022-12-07T07:25:27;16.75;;;8.73;;
74320;SDS011;62738;45.772;4.804;2022-12-07T07:27:54;19.38;;;9.07;;
74320;SDS011;62738;45.772;4.804;2022-12-07T07:30:20;20.13;;;9.82;;
74320;SDS011;62738;45.772;4.804;2022-12-07T07:32:47;16.70;;;8.90;;
74320;SDS011;62738;45.772;4.804;2022-12-07T07:35:14;17.67;;;8.80;;
74320;SDS011;62738;45.772;4.804;2022-12-07T07:37:41;16.35;;;8.63;;
74320;SDS011;62738;45.772;4.804;2022-12-07T07:40:08;19.50;;;9.32;;
74320;SDS011;62738;45.772;4.804;2022-12-07T07:42:35;17.35;;;8.65;;
74320;SDS011;62738;45.772;4.804;2022-12-07T07:45:02;15.13;;;7.63;;
74320;SDS011;62738;45.772;4.804;2022-12-07T07:47:29;14.85;;;8.25;;
74320;SDS011;62738;45.772;4.804;2022-12-07T07:49:55;14.15;;;7.65;;
74320;SDS011;62738;45.772;4.804;2022-12-07T07:52:23;16.02;;;7.65;;
74320;SDS011;62738;45.772;4.804;2022-12-07T07:54:49;16.20;;;7.45;;
74320;SDS011;62738;45.772;4.804;2022-12-07T07:57:17;13.70;;;6.63;;
74320;SDS011;62738;45.772;4.804;2022-12-07T07:59:43;15.80;;;7.88;;
74320;SDS011;62738;45.772;4.804;2022-12-07T08:02:14;16.35;;;7.97;;
74320;SDS011;62738;45.772;4.804;2022-12-07T08:04:42;19.10;;;9.43;;
74320;SDS011;62738;45.772;4.804;2022-12-07T08:07:10;22.30;;;10.05;;
74320;SDS011;62738;45.772;4.804;2022-12-07T08:09:37;19.55;;;8.75;;
74320;SDS011;62738;45.772;4.804;2022-12-07T08:12:04;22.35;;;10.45;;
74320;SDS011;62738;45.772;4.804;2022-12-07T08:14:31;21.60;;;10.15;;
74320;SDS011;62738;45.772;4.804;2022-12-07T08:16:57;22.90;;;11.45;;
74320;SDS011;62738;45.772;4.804;2022-12-07T08:19:24;25.33;;;11.70;;
74320;SDS011;62738;45.772;4.804;2022-12-07T08:21:51;21.98;;;10.73;;
74320;SDS011;62738;45.772;4.804;2022-12-07T08:24:17;24.77;;;11.13;;
74320;SDS011;62738;45.772;4.804;2022-12-07T08:26:44;22.33;;;11.45;;
74320;SDS011;62738;45.772;4.804;2022-12-07T08:29:10;22.10;;;10.85;;
74320;SDS011;62738;45.772;4.804;2022-12-07T08:31:37;22.95;;;10.75;;
74320;SDS011;62738;45.772;4.804;2022-12-07T08:34:04;22.95;;;10.75;;
74320;SDS011;62738;45.772;4.804;2022-12-07T08:36:31;25.25;;;11.38;;
74320;SDS011;62738;45.772;4.804;2022-12-07T08:38:57;24.70;;;11.10;;
74320;SDS011;62738;45.772;4.804;2022-12-07T08:41:44;23.02;;;11.10;;
74320;SDS011;62738;45.772;4.804;2022-12-07T08:44:10;25.35;;;10.35;;
74320;SDS011;62738;45.772;4.804;2022-12-07T08:46:38;24.00;;;11.50;;
74320;SDS011;62738;45.772;4.804;2022-12-07T08:49:12;20.85;;;9.82;;
74320;SDS011;62738;45.772;4.804;2022-12-07T08:51:44;23.17;;;11.43;;
74320;SDS011;62738;45.772;4.804;2022-12-07T08:54:12;23.77;;;10.80;;
74320;SDS011;62738;45.772;4.804;2022-12-07T08:56:42;23.38;;;9.82;;
74320;SDS011;62738;45.772;4.804;2022-12-07T08:59:11;21.13;;;10.25;;
74320;SDS011;62738;45.772;4.804;2022-12-07T09:01:40;21.42;;;9.73;;
74320;SDS011;62738;45.772;4.804;2022-12-07T09:04:07;23.42;;;10.75;;
74320;SDS011;62738;45.772;4.804;2022-12-07T09:06:34;20.65;;;9.07;;
74320;SDS011;62738;45.772;4.804;2022-12-07T09:09:02;19.13;;;9.52;;
74320;SDS011;62738;45.772;4.804;2022-12-07T09:11:29;18.67;;;8.50;;
74320;SDS011;62738;45.772;4.804;2022-12-07T09:13:56;24.25;;;10.20;;
74320;SDS011;62738;45.772;4.804;2022-12-07T09:16:22;19.48;;;9.52;;
74320;SDS011;62738;45.772;4.804;2022-12-07T09:18:49;20.08;;;9.57;;
74320;SDS011;62738;45.772;4.804;2022-12-07T09:21:16;19.75;;;9.23;;
74320;SDS011;62738;45.772;4.804;2022-12-07T09:23:42;16.80;;;8.35;;
74320;SDS011;62738;45.772;4.804;2022-12-07T09:26:09;19.58;;;9.85;;
74320;SDS011;62738;45.772;4.804;2022-12-07T09:28:36;21.00;;;9.55;;
74320;SDS011;62738;45.772;4.804;2022-12-07T09:31:04;20.40;;;9.32;;
74320;SDS011;62738;45.772;4.804;2022-12-07T09:33:54;19.15;;;9.73;;
74320;SDS011;62738;45.772;4.804;2022-12-07T09:36:25;21.70;;;9.55;;
74320;SDS011;62738;45.772;4.804;2022-12-07T09:38:53;19.45;;;8.75;;
74320;SDS011;62738;45.772;4.804;2022-12-07T09:41:21;21.17;;;9.43;;
74320;SDS011;62738;45.772;4.804;2022-12-07T09:43:50;19.95;;;9.85;;
74320;SDS011;62738;45.772;4.804;2022-12-07T09:46:17;21.80;;;9.18;;
74320;SDS011;62738;45.772;4.804;2022-12-07T09:48:46;20.65;;;9.27;;
74320;SDS011;62738;45.772;4.804;2022-12-07T09:51:17;21.40;;;9.85;;
74320;SDS011;62738;45.772;4.804;2022-12-07T09:53:50;21.58;;;9.95;;
74320;SDS011;62738;45.772;4.804;2022-12-07T09:56:18;17.33;;;8.75;;
74320;SDS011;62738;45.772;4.804;2022-12-07T09:58:46;18.08;;;8.65;;
74320;SDS011;62738;45.772;4.804;2022-12-07T10:01:20;21.33;;;9.73;;
74320;SDS011;62738;45.772;4.804;2022-12-07T10:03:52;20.40;;;9.68;;
74320;SDS011;62738;45.772;4.804;2022-12-07T10:06:23;19.63;;;9.25;;
74320;SDS011;62738;45.772;4.804;2022-12-07T10:08:49;20.45;;;9.15;;
74320;SDS011;62738;45.772;4.804;2022-12-07T10:11:16;21.75;;;10.63;;
74320;SDS011;62738;45.772;4.804;2022-12-07T10:13:47;20.48;;;9.85;;
74320;SDS011;62738;45.772;4.804;2022-12-07T10:18:51;20.88;;;10.40;;
74320;SDS011;62738;45.772;4.804;2022-12-07T10:21:22;23.73;;;10.55;;
74320;SDS011;62738;45.772;4.804;2022-12-07T10:28:59;21.58;;;9.95;;
74320;SDS011;62738;45.772;4.804;2022-12-07T10:31:30;20.58;;;10.20;;
74320;SDS011;62738;45.772;4.804;2022-12-07T10:33:57;21.08;;;10.63;;
74320;SDS011;62738;45.772;4.804;2022-12-07T10:36:47;20.55;;;10.60;;
74320;SDS011;62738;45.772;4.804;2022-12-07T10:39:20;21.58;;;11.35;;
74320;SDS011;62738;45.772;4.804;2022-12-07T10:41:55;19.63;;;10.30;;
74320;SDS011;62738;45.772;4.804;2022-12-07T10:44:27;25.52;;;11.30;;
74320;SDS011;62738;45.772;4.804;2022-12-07T10:47:05;21.83;;;11.00;;
74320;SDS011;62738;45.772;4.804;2022-12-07T11:01:39;23.17;;;11.38;;
74320;SDS011;62738;45.772;4.804;2022-12-07T11:10:12;22.75;;;10.82;;
74320;SDS011;62738;45.772;4.804;2022-12-07T11:18:28;23.67;;;11.95;;
74320;SDS011;62738;45.772;4.804;2022-12-07T11:31:57;23.73;;;10.82;;
74320;SDS011;62738;45.772;4.804;2022-12-07T11:37:19;22.15;;;10.98;;
74320;SDS011;62738;45.772;4.804;2022-12-07T11:39:52;24.65;;;11.50;;
74320;SDS011;62738;45.772;4.804;2022-12-07T11:42:22;22.83;;;11.73;;
74320;SDS011;62738;45.772;4.804;2022-12-07T11:44:55;24.00;;;10.32;;
74320;SDS011;62738;45.772;4.804;2022-12-07T11:50:25;20.83;;;10.48;;
74320;SDS011;62738;45.772;4.804;2022-12-07T11:52:55;19.52;;;8.55;;
74320;SDS011;62738;45.772;4.804;2022-12-07T11:55:29;17.80;;;9.00;;
74320;SDS011;62738;45.772;4.804;2022-12-07T12:00:48;16.65;;;8.20;;
74320;SDS011;62738;45.772;4.804;2022-12-07T12:03:27;18.33;;;9.18;;
74320;SDS011;62738;45.772;4.804;2022-12-07T12:06:00;17.17;;;9.32;;
74320;SDS011;62738;45.772;4.804;2022-12-07T12:08:34;18.48;;;9.23;;
74320;SDS011;62738;45.772;4.804;2022-12-07T12:15:01;23.58;;;9.95;;
74320;SDS011;62738;45.772;4.804;2022-12-07T12:17:49;19.23;;;8.90;;
74320;SDS011;62738;45.772;4.804;2022-12-07T12:20:28;18.60;;;8.57;;
74320;SDS011;62738;45.772;4.804;2022-12-07T12:25:40;19.58;;;9.30;;
74320;SDS011;62738;45.772;4.804;2022-12-07T12:33:59;19.45;;;9.05;;
74320;SDS011;62738;45.772;4.804;2022-12-07T12:44:01;18.48;;;8.73;;
74320;SDS011;62738;45.772;4.804;2022-12-07T12:52:00;20.77;;;9.77;;
74320;SDS011;62738;45.772;4.804;2022-12-07T12:54:57;16.70;;;8.25;;
74320;SDS011;62738;45.772;4.804;2022-12-07T12:58:34;17.55;;;9.25;;
74320;SDS011;62738;45.772;4.804;2022-12-07T13:00:46;20.30;;;9.38;;
74320;SDS011;62738;45.772;4.804;2022-12-07T13:03:48;19.77;;;10.00;;
74320;SDS011;62738;45.772;4.804;2022-12-07T13:08:46;17.35;;;8.40;;
74320;SDS011;62738;45.772;4.804;2022-12-07T13:11:34;16.45;;;8.40;;
74320;SDS011;62738;45.772;4.804;2022-12-07T13:17:57;20.70;;;9.15;;
74320;SDS011;62738;45.772;4.804;2022-12-07T13:22:40;20.77;;;9.68;;
74320;SDS011;62738;45.772;4.804;2022-12-07T13:25:11;19.45;;;9.73;;
74320;SDS011;62738;45.772;4.804;2022-12-07T13:30:27;16.27;;;7.40;;
74320;SDS011;62738;45.772;4.804;2022-12-07T13:32:56;19.88;;;9.02;;
74320;SDS011;62738;45.772;4.804;2022-12-07T13:35:32;18.23;;;8.95;;
74320;SDS011;62738;45.772;4.804;2022-12-07T13:38:05;17.30;;;8.68;;
74320;SDS011;62738;45.772;4.804;2022-12-07T13:40:41;20.15;;;9.07;;
74320;SDS011;62738;45.772;4.804;2022-12-07T13:43:14;19.08;;;9.32;;
74320;SDS011;62738;45.772;4.804;2022-12-07T13:45:42;19.13;;;8.25;;
74320;SDS011;62738;45.772;4.804;2022-12-07T13:48:21;20.23;;;9.88;;
74320;SDS011;62738;45.772;4.804;2022-12-07T13:50:54;18.20;;;9.10;;
74320;SDS011;62738;45.772;4.804;2022-12-07T13:53:23;19.63;;;8.95;;
74320;SDS011;62738;45.772;4.804;2022-12-07T13:55:50;20.08;;;9.45;;
74320;SDS011;62738;45.772;4.804;2022-12-07T13:58:20;21.25;;;8.68;;
74320;SDS011;62738;45.772;4.804;2022-12-07T14:00:47;16.70;;;8.80;;
74320;SDS011;62738;45.772;4.804;2022-12-07T14:05:41;22.55;;;9.27;;
74320;SDS011;62738;45.772;4.804;2022-12-07T14:10:40;19.45;;;9.23;;
74320;SDS011;62738;45.772;4.804;2022-12-07T14:16:05;19.17;;;8.82;;
74320;SDS011;62738;45.772;4.804;2022-12-07T14:18:55;21.17;;;9.55;;
74320;SDS011;62738;45.772;4.804;2022-12-07T14:21:24;20.38;;;9.40;;
74320;SDS011;62738;45.772;4.804;2022-12-07T14:24:04;22.92;;;9.93;;
74320;SDS011;62738;45.772;4.804;2022-12-07T14:26:37;20.35;;;9.07;;
74320;SDS011;62738;45.772;4.804;2022-12-07T14:29:22;17.70;;;8.93;;
74320;SDS011;62738;45.772;4.804;2022-12-07T14:31:48;16.98;;;8.35;;
74320;SDS011;62738;45.772;4.804;2022-12-07T14:34:15;17.40;;;8.80;;
74320;SDS011;62738;45.772;4.804;2022-12-07T14:36:42;20.48;;;9.75;;
74320;SDS011;62738;45.772;4.804;2022-12-07T14:39:08;17.27;;;9.13;;
74320;SDS011;62738;45.772;4.804;2022-12-07T14:41:39;20.00;;;9.30;;
74320;SDS011;62738;45.772;4.804;2022-12-07T14:44:24;17.88;;;8.60;;
74320;SDS011;62738;45.772;4.804;2022-12-07T14:46:59;17.65;;;8.95;;
74320;SDS011;62738;45.772;4.804;2022-12-07T14:49:45;20.45;;;8.75;;
74320;SDS011;62738;45.772;4.804;2022-12-07T14:52:19;17.60;;;8.85;;
74320;SDS011;62738;45.772;4.804;2022-12-07T14:55:12;22.33;;;9.77;;
74320;SDS011;62738;45.772;4.804;2022-12-07T14:57:40;20.67;;;9.75;;
74320;SDS011;62738;45.772;4.804;2022-12-07T15:00:08;20.52;;;9.65;;
74320;SDS011;62738;45.772;4.804;2022-12-07T15:02:39;22.05;;;9.75;;
74320;SDS011;62738;45.772;4.804;2022-12-07T15:05:05;20.08;;;8.77;;
74320;SDS011;62738;45.772;4.804;2022-12-07T15:07:40;19.05;;;8.77;;
74320;SDS011;62738;45.772;4.804;2022-12-07T15:10:27;22.92;;;10.00;;
74320;SDS011;62738;45.772;4.804;2022-12-07T15:12:58;21.95;;;10.45;;
74320;SDS011;62738;45.772;4.804;2022-12-07T15:18:15;18.42;;;8.77;;
74320;SDS011;62738;45.772;4.804;2022-12-07T15:20:43;18.50;;;8.88;;
74320;SDS011;62738;45.772;4.804;2022-12-07T15:23:10;19.00;;;10.00;;
74320;SDS011;62738;45.772;4.804;2022-12-07T15:25:44;21.48;;;10.35;;
74320;SDS011;62738;45.772;4.804;2022-12-07T15:28:12;20.77;;;10.35;;
74320;SDS011;62738;45.772;4.804;2022-12-07T15:30:40;20.60;;;10.18;;
74320;SDS011;62738;45.772;4.804;2022-12-07T15:33:12;27.35;;;10.93;;
74320;SDS011;62738;45.772;4.804;2022-12-07T15:35:43;23.63;;;10.18;;
74320;SDS011;62738;45.772;4.804;2022-12-07T15:38:10;24.92;;;10.90;;
74320;SDS011;62738;45.772;4.804;2022-12-07T15:40:37;21.75;;;10.32;;
74320;SDS011;62738;45.772;4.804;2022-12-07T15:43:04;26.92;;;11.55;;
74320;SDS011;62738;45.772;4.804;2022-12-07T15:45:30;24.23;;;10.82;;
74320;SDS011;62738;45.772;4.804;2022-12-07T15:47:57;23.35;;;11.48;;
74320;SDS011;62738;45.772;4.804;2022-12-07T15:50:44;23.13;;;11.82;;
74320;SDS011;62738;45.772;4.804;2022-12-07T15:53:10;23.75;;;10.35;;
74320;SDS011;62738;45.772;4.804;2022-12-07T15:55:40;21.42;;;10.90;;
74320;SDS011;62738;45.772;4.804;2022-12-07T15:58:07;21.88;;;11.20;;
74320;SDS011;62738;45.772;4.804;2022-12-07T16:00:33;20.42;;;10.80;;
74320;SDS011;62738;45.772;4.804;2022-12-07T16:03:00;19.15;;;9.43;;
74320;SDS011;62738;45.772;4.804;2022-12-07T16:05:27;19.73;;;9.88;;
74320;SDS011;62738;45.772;4.804;2022-12-07T16:07:55;21.27;;;9.93;;
74320;SDS011;62738;45.772;4.804;2022-12-07T16:10:21;17.75;;;10.20;;
74320;SDS011;62738;45.772;4.804;2022-12-07T16:12:48;20.05;;;10.15;;
74320;SDS011;62738;45.772;4.804;2022-12-07T16:15:15;19.48;;;10.00;;
74320;SDS011;62738;45.772;4.804;2022-12-07T16:17:48;19.27;;;9.43;;
74320;SDS011;62738;45.772;4.804;2022-12-07T16:20:14;16.83;;;8.88;;
74320;SDS011;62738;45.772;4.804;2022-12-07T16:22:41;16.70;;;8.75;;
74320;SDS011;62738;45.772;4.804;2022-12-07T16:25:07;22.20;;;9.07;;
74320;SDS011;62738;45.772;4.804;2022-12-07T16:27:34;15.52;;;8.18;;
74320;SDS011;62738;45.772;4.804;2022-12-07T16:30:01;22.20;;;9.52;;
74320;SDS011;62738;45.772;4.804;2022-12-07T16:32:27;18.98;;;8.98;;
74320;SDS011;62738;45.772;4.804;2022-12-07T16:34:54;16.50;;;8.20;;
74320;SDS011;62738;45.772;4.804;2022-12-07T16:37:21;16.17;;;8.35;;
74320;SDS011;62738;45.772;4.804;2022-12-07T16:39:47;17.35;;;8.45;;
74320;SDS011;62738;45.772;4.804;2022-12-07T16:42:14;16.73;;;8.40;;
74320;SDS011;62738;45.772;4.804;2022-12-07T16:44:40;17.27;;;8.25;;
74320;SDS011;62738;45.772;4.804;2022-12-07T16:47:07;18.10;;;9.23;;
74320;SDS011;62738;45.772;4.804;2022-12-07T16:49:34;15.75;;;8.88;;
74320;SDS011;62738;45.772;4.804;2022-12-07T16:52:01;19.92;;;9.18;;
74320;SDS011;62738;45.772;4.804;2022-12-07T16:54:45;19.08;;;9.18;;
74320;SDS011;62738;45.772;4.804;2022-12-07T16:57:12;16.88;;;8.25;;
74320;SDS011;62738;45.772;4.804;2022-12-07T16:59:46;20.00;;;8.85;;
74320;SDS011;62738;45.772;4.804;2022-12-07T17:02:13;16.95;;;8.55;;